createdAt,value
2022-10-16T08:14:49.478Z,1.77
2022-10-16T08:17:59.093Z,1.85
2022-10-16T08:21:03.694Z,1.95
2022-10-16T08:24:05.403Z,1.95
2022-10-16T08:27:07.680Z,3.08
2022-10-16T08:30:10.058Z,2.53
2022-10-16T08:33:12.169Z,1.83
2022-10-16T08:36:13.730Z,1.98
2022-10-16T08:39:16.936Z,1.80
2022-10-16T08:42:37.142Z,1.83
2022-10-16T08:45:45.663Z,1.90
2022-10-16T08:48:59.447Z,1.63
2022-10-16T08:52:01.300Z,1.40
2022-10-16T08:55:04.646Z,1.50
2022-10-16T08:58:21.573Z,1.63
2022-10-16T09:01:25.067Z,1.50
2022-10-16T09:04:26.717Z,1.33
2022-10-16T09:07:54.842Z,1.40
2022-10-16T09:11:05.642Z,1.52
2022-10-16T09:14:38.308Z,1.30
2022-10-16T09:17:51.014Z,1.20
2022-10-16T09:20:56.154Z,1.38
2022-10-16T09:24:05.338Z,1.40
2022-10-16T09:27:12.267Z,1.30
2022-10-16T09:30:17.037Z,1.52
2022-10-16T09:33:30.504Z,1.30
2022-10-16T09:36:42.787Z,1.20
2022-10-16T09:39:48.541Z,1.15
2022-10-16T09:42:50.262Z,1.50
2022-10-16T09:45:56.911Z,1.20
2022-10-16T09:49:19.655Z,1.20
2022-10-16T09:52:21.793Z,1.10
2022-10-16T09:55:23.490Z,1.20
2022-10-16T09:58:25.563Z,1.30
2022-10-16T10:01:39.359Z,1.35
2022-10-16T10:04:52.272Z,1.02
2022-10-16T10:08:06.842Z,1.17
2022-10-16T10:11:11.579Z,1.17
2022-10-16T10:14:22.614Z,1.48
2022-10-16T10:17:25.356Z,1.10
2022-10-16T10:20:35.430Z,1.10
2022-10-16T10:23:36.943Z,1.10
2022-10-16T10:26:46.590Z,1.00
2022-10-16T10:30:00.551Z,0.90
2022-10-16T10:33:15.558Z,0.98
2022-10-16T10:36:39.561Z,1.20
2022-10-16T10:39:49.233Z,1.02
2022-10-16T10:43:20.252Z,1.10
2022-10-16T10:46:36.030Z,1.55
2022-10-16T10:50:01.530Z,0.95
2022-10-16T10:53:09.070Z,0.85
2022-10-16T10:56:19.735Z,1.30
2022-10-16T10:59:27.210Z,1.00
2022-10-16T11:02:57.841Z,0.98
2022-10-16T11:06:16.296Z,1.08
2022-10-16T11:09:28.552Z,1.05
2022-10-16T11:12:41.690Z,1.10
2022-10-16T11:15:46.167Z,1.23
2022-10-16T11:18:58.907Z,0.90
2022-10-16T11:22:15.749Z,1.15
2022-10-16T11:25:23.105Z,0.90
2022-10-16T11:28:40.510Z,0.90
2022-10-16T11:31:53.517Z,1.05
2022-10-16T11:35:01.472Z,0.80
2022-10-16T11:38:10.609Z,0.88
2022-10-16T11:41:36.743Z,0.70
2022-10-16T11:45:05.947Z,0.93
2022-10-16T11:48:13.649Z,0.80
2022-10-16T11:51:22.651Z,0.75
2022-10-16T11:54:35.211Z,0.70
2022-10-16T11:57:43.354Z,1.00
2022-10-16T12:00:52.660Z,0.95
2022-10-16T12:04:16.812Z,0.77
2022-10-16T12:07:29.048Z,0.73
2022-10-16T12:13:44.689Z,0.70
2022-10-16T12:16:53.905Z,0.70
2022-10-16T12:20:18.572Z,1.00
2022-10-16T12:23:23.731Z,0.80
2022-10-16T12:26:27.379Z,0.68
2022-10-16T12:29:39.569Z,0.80
2022-10-16T12:32:46.858Z,0.95
2022-10-16T12:35:49.163Z,0.60
2022-10-16T12:38:52.479Z,0.55
2022-10-16T12:42:20.539Z,0.80
2022-10-16T12:45:26.549Z,0.80
2022-10-16T12:48:36.956Z,0.65
2022-10-16T12:51:50.270Z,0.70
2022-10-16T12:54:52.101Z,0.68
2022-10-16T12:58:15.198Z,0.65
2022-10-16T13:01:46.244Z,0.93
2022-10-16T13:05:03.211Z,0.63
2022-10-16T13:08:42.612Z,0.57
2022-10-16T13:11:47.189Z,0.40
2022-10-16T13:15:13.086Z,0.77
2022-10-16T13:18:20.526Z,0.60
2022-10-16T13:21:54.543Z,0.50
2022-10-16T13:24:58.817Z,0.70
2022-10-16T13:28:02.591Z,0.70
2022-10-16T13:31:05.380Z,0.80
2022-10-16T13:34:12.306Z,0.70
2022-10-16T13:37:26.214Z,1.10
2022-10-16T13:40:28.023Z,1.10
2022-10-16T13:43:29.518Z,0.80
2022-10-16T13:46:35.272Z,1.27
2022-10-16T13:49:36.778Z,0.80
2022-10-16T13:52:39.112Z,0.90
2022-10-16T13:55:41.208Z,1.00
2022-10-16T13:58:42.941Z,0.80
2022-10-16T14:01:45.445Z,0.82
2022-10-16T14:04:48.267Z,0.85
2022-10-16T14:07:52.712Z,0.90
2022-10-16T14:10:57.735Z,1.30
2022-10-16T14:13:59.538Z,1.05
2022-10-16T14:17:01.273Z,0.70
2022-10-16T14:20:07.107Z,0.80
2022-10-16T14:23:20.478Z,0.90
2022-10-16T14:26:25.111Z,0.60
2022-10-16T14:29:29.000Z,0.70
2022-10-16T14:32:30.541Z,0.50
2022-10-16T14:35:38.486Z,0.90
2022-10-16T14:38:42.884Z,0.88
2022-10-16T14:41:50.603Z,0.75
2022-10-16T14:44:54.046Z,0.90
2022-10-16T14:47:59.334Z,0.90
2022-10-16T14:51:00.822Z,0.90
2022-10-16T14:54:02.863Z,0.63
2022-10-16T14:57:05.327Z,0.80
2022-10-16T15:00:24.239Z,1.10
2022-10-16T15:03:25.791Z,0.55
2022-10-16T15:06:27.351Z,0.70
2022-10-16T15:09:28.889Z,0.73
2022-10-16T15:12:30.353Z,0.60
